Time;durP1;ratioP1;P1;durP2;ratioP2;P2;SDS_P1;SDS_P2;PMS_P1;PMS_P2;Temp;Humidity;BMP_temperature;BMP_pressure;BME280_temperature;BME280_humidity;BME280_pressure;Samples;Min_cycle;Max_cycle;Signal;HPM_P1;HPM_P2
2023/10/12 00:01:26;;;;;;;13.43;2.17;;;13.50;93.30;;;;;;5088213;28;20417;-71
2023/10/12 00:04:05;;;;;;;12.95;1.70;;;13.50;93.30;;;;;;5085887;28;20421;-71
2023/10/12 00:06:36;;;;;;;14.73;2.00;;;13.40;93.30;;;;;;5091080;28;20419;-71
2023/10/12 00:09:17;;;;;;;14.87;2.00;;;13.50;93.30;;;;;;5087382;28;20406;-71
2023/10/12 00:11:54;;;;;;;14.47;2.00;;;13.50;93.20;;;;;;5087863;28;20912;-71
2023/10/12 00:14:22;;;;;;;14.48;2.10;;;13.50;93.30;;;;;;5074040;28;20407;-71
2023/10/12 00:16:51;;;;;;;13.27;1.98;;;13.50;93.60;;;;;;5087440;28;20414;-71
2023/10/12 00:19:16;;;;;;;13.63;1.98;;;13.50;93.40;;;;;;5100534;28;20503;-71
2023/10/12 00:21:43;;;;;;;13.63;2.05;;;13.50;93.40;;;;;;5094529;28;20516;-71
2023/10/12 00:24:13;;;;;;;13.23;2.25;;;13.60;93.30;;;;;;5097086;28;20424;-72
2023/10/12 00:26:42;;;;;;;14.45;1.88;;;13.50;93.10;;;;;;5087426;28;20406;-71
2023/10/12 00:29:08;;;;;;;9.85;1.70;;;13.50;93.10;;;;;;5090758;28;20451;-71
2023/10/12 00:31:37;;;;;;;15.07;2.47;;;13.60;93.20;;;;;;5091264;28;20489;-71
2023/10/12 00:34:03;;;;;;;19.17;2.67;;;13.60;93.10;;;;;;5095835;28;20413;-71
2023/10/12 00:36:29;;;;;;;15.10;1.90;;;13.60;92.90;;;;;;5091614;28;20401;-71
2023/10/12 00:38:56;;;;;;;14.73;2.20;;;13.50;92.80;;;;;;5090727;28;20853;-72
2023/10/12 00:41:24;;;;;;;14.73;2.33;;;13.50;92.90;;;;;;5093361;28;20397;-71
2023/10/12 00:44:10;;;;;;;13.97;1.83;;;13.50;92.70;;;;;;5099369;28;20417;-71
2023/10/12 00:51:51;;;;;;;12.63;1.77;;;13.50;92.40;;;;;;5081692;28;20497;-71
2023/10/12 00:57:03;;;;;;;19.05;2.40;;;13.50;92.20;;;;;;5090101;28;20417;-71
2023/10/12 00:59:34;;;;;;;12.20;1.70;;;13.50;92.00;;;;;;5092522;28;20459;-71
2023/10/12 01:02:08;;;;;;;14.32;2.00;;;13.50;92.10;;;;;;5090951;28;20417;-71
2023/10/12 01:04:41;;;;;;;15.95;2.35;;;13.50;91.90;;;;;;5093139;28;20430;-71
2023/10/12 01:07:16;;;;;;;15.53;2.10;;;13.50;92.00;;;;;;5083227;28;20417;-71
2023/10/12 01:09:43;;;;;;;17.70;2.22;;;13.50;91.90;;;;;;5088056;28;20494;-71
2023/10/12 01:12:17;;;;;;;16.90;2.00;;;13.50;92.00;;;;;;5090653;28;20984;-71
2023/10/12 01:14:47;;;;;;;14.38;1.95;;;13.50;92.10;;;;;;5093224;28;20806;-71
2023/10/12 01:17:17;;;;;;;15.77;2.50;;;13.50;91.80;;;;;;5090774;28;20492;-71
2023/10/12 01:19:47;;;;;;;14.18;1.60;;;13.40;91.60;;;;;;5072306;28;20441;-71
2023/10/12 01:22:14;;;;;;;16.02;2.17;;;13.40;91.60;;;;;;5094774;28;20503;-71
2023/10/12 01:27:22;;;;;;;13.73;1.70;;;13.40;91.60;;;;;;5089422;28;20406;-71
2023/10/12 01:29:49;;;;;;;14.38;1.60;;;13.40;91.60;;;;;;5090803;28;20413;-71
2023/10/12 01:34:53;;;;;;;12.57;1.70;;;13.40;91.40;;;;;;5080302;28;20513;-71
2023/10/12 01:39:57;;;;;;;14.47;1.93;;;13.30;91.40;;;;;;5090764;28;20764;-71
2023/10/12 01:45:04;;;;;;;13.88;1.92;;;13.30;91.40;;;;;;5097617;28;20567;-71
2023/10/12 01:47:30;;;;;;;12.45;1.50;;;13.30;91.20;;;;;;5090244;28;20772;-71
2023/10/12 01:50:00;;;;;;;15.27;2.00;;;13.20;91.30;;;;;;5095836;28;20402;-71
2023/10/12 01:52:26;;;;;;;12.70;1.55;;;13.20;91.30;;;;;;5090167;28;20413;-71
2023/10/12 01:54:52;;;;;;;13.35;2.03;;;13.20;91.20;;;;;;5088874;28;20409;-71
2023/10/12 01:57:30;;;;;;;12.38;1.77;;;13.20;91.20;;;;;;5098958;28;20408;-71
2023/10/12 01:59:58;;;;;;;13.40;1.88;;;13.10;91.20;;;;;;5080569;28;20417;-71
2023/10/12 02:02:24;;;;;;;17.38;2.08;;;13.10;91.10;;;;;;5088498;28;20420;-71
2023/10/12 02:04:51;;;;;;;16.63;2.00;;;13.10;91.10;;;;;;5089452;28;20426;-71
2023/10/12 02:07:17;;;;;;;15.37;2.03;;;13.10;91.10;;;;;;5089869;28;20410;-71
2023/10/12 02:09:44;;;;;;;12.48;1.70;;;13.10;91.20;;;;;;5090261;28;20404;-71
2023/10/12 02:12:12;;;;;;;15.07;2.10;;;13.10;91.10;;;;;;5089452;28;20934;-71
2023/10/12 02:14:41;;;;;;;14.03;2.40;;;13.00;91.00;;;;;;5089217;28;20417;-71
2023/10/12 02:17:10;;;;;;;16.13;2.03;;;13.00;91.00;;;;;;5092247;28;20532;-71
2023/10/12 02:22:05;;;;;;;13.32;1.60;;;13.00;91.10;;;;;;5089873;28;20406;-71
2023/10/12 02:24:31;;;;;;;15.70;2.10;;;13.00;91.00;;;;;;5089687;28;21177;-71
2023/10/12 02:27:00;;;;;;;12.93;1.85;;;12.90;90.90;;;;;;5092280;28;20930;-71
2023/10/12 02:29:28;;;;;;;14.35;1.90;;;12.90;90.90;;;;;;5089693;28;20402;-71
2023/10/12 02:31:58;;;;;;;14.13;1.88;;;12.90;90.80;;;;;;5092829;28;20414;-71
2023/10/12 02:34:31;;;;;;;11.57;1.50;;;12.90;90.80;;;;;;5088299;28;20467;-71
2023/10/12 02:39:37;;;;;;;13.23;1.60;;;12.90;91.00;;;;;;5088988;28;20519;-71
2023/10/12 02:42:17;;;;;;;10.75;1.65;;;12.90;90.80;;;;;;5088624;28;20818;-71
2023/10/12 02:47:22;;;;;;;12.70;1.98;;;12.80;90.60;;;;;;5089192;28;20425;-71
2023/10/12 02:50:14;;;;;;;10.07;1.40;;;12.80;90.60;;;;;;5088976;28;20477;-71
2023/10/12 02:52:43;;;;;;;11.35;1.63;;;12.80;90.60;;;;;;5090318;28;20405;-71
2023/10/12 02:58:35;;;;;;;14.73;1.90;;;12.80;90.50;;;;;;5088892;28;20404;-71
2023/10/12 03:03:08;;;;;;;11.15;1.42;;;12.70;90.30;;;;;;5088727;28;20398;-71
2023/10/12 03:05:46;;;;;;;11.40;1.85;;;12.70;90.30;;;;;;5088848;28;20429;-71
2023/10/12 03:08:13;;;;;;;11.47;1.57;;;12.70;90.30;;;;;;5078416;28;20409;-71
2023/10/12 03:10:50;;;;;;;8.95;1.20;;;12.70;90.20;;;;;;5088837;28;20413;-71
2023/10/12 03:13:25;;;;;;;12.38;1.73;;;12.70;90.20;;;;;;5079522;28;20404;-71
2023/10/12 03:15:57;;;;;;;16.65;1.92;;;12.60;90.10;;;;;;5070073;28;20406;-71
2023/10/12 03:18:26;;;;;;;11.55;1.98;;;12.60;90.10;;;;;;5095142;28;20785;-71
2023/10/12 03:21:14;;;;;;;15.23;2.17;;;12.60;90.20;;;;;;5088446;28;20429;-72
2023/10/12 03:23:43;;;;;;;11.35;1.70;;;12.60;90.20;;;;;;5087026;28;20744;-72
2023/10/12 03:26:24;;;;;;;10.15;1.48;;;12.60;90.20;;;;;;5088722;28;20485;-71
2023/10/12 03:29:08;;;;;;;9.18;1.50;;;12.50;90.20;;;;;;5088342;28;20922;-71
2023/10/12 03:31:36;;;;;;;16.77;2.10;;;12.50;90.10;;;;;;5088191;28;20422;-71
2023/10/12 03:34:05;;;;;;;10.63;1.38;;;12.50;90.20;;;;;;5077834;28;20394;-71
2023/10/12 03:36:36;;;;;;;13.30;1.67;;;12.50;90.30;;;;;;5084909;28;20428;-71
2023/10/12 03:39:13;;;;;;;14.07;2.08;;;12.50;90.40;;;;;;5088649;28;20494;-71
2023/10/12 03:52:28;;;;;;;10.32;1.35;;;12.40;90.20;;;;;;5088746;28;20475;-71
2023/10/12 03:55:19;;;;;;;10.65;1.70;;;12.40;90.20;;;;;;5084911;28;20398;-71
2023/10/12 04:00:25;;;;;;;13.80;1.70;;;12.40;90.20;;;;;;5095762;28;20479;-71
2023/10/12 04:05:34;;;;;;;12.35;1.52;;;12.30;90.10;;;;;;5097055;28;20771;-71
2023/10/12 04:08:00;;;;;;;12.32;1.92;;;12.30;90.10;;;;;;5087178;28;20448;-71
2023/10/12 04:18:41;;;;;;;9.35;1.50;;;12.20;89.80;;;;;;5087549;28;20409;-71
2023/10/12 04:21:09;;;;;;;11.20;1.55;;;12.20;89.70;;;;;;5111543;28;20418;-71
2023/10/12 04:28:52;;;;;;;15.43;1.50;;;12.20;89.40;;;;;;5088118;28;20483;-71
2023/10/12 04:31:27;;;;;;;9.73;1.70;;;12.20;89.60;;;;;;5083877;28;20402;-71
2023/10/12 04:34:05;;;;;;;11.48;1.70;;;12.10;89.70;;;;;;5087915;28;20405;-71
2023/10/12 04:44:35;;;;;;;9.80;1.48;;;12.00;89.30;;;;;;5092821;28;20505;-71
2023/10/12 04:46:59;;;;;;;11.63;2.03;;;12.00;89.30;;;;;;5081721;28;20408;-71
2023/10/12 04:57:34;;;;;;;10.15;1.42;;;12.00;89.50;;;;;;5086530;28;20410;-71
2023/10/12 05:00:25;;;;;;;9.45;1.80;;;12.00;89.50;;;;;;5087528;28;20438;-71
2023/10/12 05:05:37;;;;;;;10.30;1.90;;;11.90;89.30;;;;;;5087649;28;20426;-71
2023/10/12 05:08:01;;;;;;;10.75;1.70;;;11.90;89.50;;;;;;5090554;28;20438;-71
2023/10/12 05:10:46;;;;;;;11.23;1.65;;;11.90;89.50;;;;;;5106624;28;20922;-71
2023/10/12 05:13:19;;;;;;;12.43;2.08;;;11.90;89.40;;;;;;5103123;28;20478;-71
2023/10/12 05:15:51;;;;;;;9.93;1.60;;;11.90;89.20;;;;;;5089076;28;20414;-71
2023/10/12 05:18:18;;;;;;;11.10;1.47;;;11.90;89.30;;;;;;5109790;27;20461;-71
2023/10/12 05:20:44;;;;;;;13.27;1.60;;;11.80;89.20;;;;;;5072715;28;20467;-69
2023/10/12 05:23:12;;;;;;;11.90;1.90;;;11.80;89.10;;;;;;5090675;28;20402;-69
2023/10/12 05:28:27;;;;;;;11.07;1.38;;;11.70;88.90;;;;;;5094321;28;20416;-70
2023/10/12 05:30:59;;;;;;;9.60;1.45;;;11.70;88.90;;;;;;5092870;28;20455;-71
2023/10/12 05:36:10;;;;;;;11.70;1.63;;;11.70;88.70;;;;;;5090180;28;20402;-71
2023/10/12 05:38:38;;;;;;;9.40;1.45;;;11.60;88.40;;;;;;5090495;28;21126;-70
2023/10/12 05:41:05;;;;;;;11.82;1.80;;;11.60;88.30;;;;;;5088985;28;20514;-71
2023/10/12 05:43:33;;;;;;;12.80;1.73;;;11.60;88.20;;;;;;5072092;28;20406;-71
2023/10/12 05:46:15;;;;;;;10.20;1.80;;;11.50;88.10;;;;;;5090346;28;20436;-71
2023/10/12 05:48:51;;;;;;;11.70;1.48;;;11.50;88.00;;;;;;5080320;28;20481;-71
2023/10/12 05:51:21;;;;;;;10.48;1.73;;;11.40;88.00;;;;;;5090096;28;20410;-71
2023/10/12 05:54:01;;;;;;;11.38;1.65;;;11.40;88.10;;;;;;5090441;28;20477;-71
2023/10/12 05:56:27;;;;;;;9.38;1.80;;;11.40;88.00;;;;;;5089886;28;20406;-71
2023/10/12 05:58:53;;;;;;;10.25;2.10;;;11.30;88.00;;;;;;5090080;28;20455;-71
2023/10/12 06:01:35;;;;;;;10.87;2.23;;;11.30;88.10;;;;;;5089686;28;20410;-71
2023/10/12 06:04:08;;;;;;;9.70;1.67;;;11.30;88.30;;;;;;5089550;28;20444;-71
2023/10/12 06:06:41;;;;;;;9.60;1.83;;;11.30;88.50;;;;;;5079777;28;20410;-71
2023/10/12 06:09:20;;;;;;;10.77;1.63;;;11.20;88.70;;;;;;5089998;28;20748;-71
2023/10/12 06:11:47;;;;;;;12.05;1.38;;;11.30;89.30;;;;;;5089723;28;20398;-72
2023/10/12 06:14:14;;;;;;;15.13;2.10;;;11.30;89.40;;;;;;5089453;28;21087;-71
2023/10/12 06:16:41;;;;;;;12.45;2.40;;;11.30;89.40;;;;;;5089445;28;20741;-71
2023/10/12 06:19:18;;;;;;;8.85;1.60;;;11.30;89.40;;;;;;5088847;28;20402;-72
2023/10/12 06:21:44;;;;;;;11.50;1.85;;;11.30;89.50;;;;;;5089089;28;20406;-71
2023/10/12 06:24:20;;;;;;;10.55;2.10;;;11.30;89.50;;;;;;5089487;28;20422;-71
2023/10/12 06:26:47;;;;;;;11.50;2.10;;;11.30;89.70;;;;;;5088678;28;20431;-72
2023/10/12 06:29:24;;;;;;;12.07;2.10;;;11.30;89.70;;;;;;5089511;28;20394;-71
2023/10/12 06:31:52;;;;;;;15.43;2.27;;;11.30;89.60;;;;;;5088883;28;20911;-71
2023/10/12 06:34:19;;;;;;;11.45;2.20;;;11.20;89.60;;;;;;5088251;28;20521;-71
2023/10/12 06:36:45;;;;;;;11.48;2.28;;;11.30;89.70;;;;;;5088423;28;20434;-71
2023/10/12 06:44:22;;;;;;;9.57;1.88;;;11.20;89.70;;;;;;5089304;28;20422;-71
2023/10/12 06:46:49;;;;;;;13.75;2.30;;;11.20;89.60;;;;;;5088817;28;20401;-72
2023/10/12 06:49:23;;;;;;;12.37;2.20;;;11.20;89.70;;;;;;5087933;28;20882;-71
2023/10/12 06:52:23;;;;;;;10.32;2.40;;;11.20;89.70;;;;;;5087799;28;20398;-71
2023/10/12 06:54:49;;;;;;;10.17;2.30;;;11.20;89.60;;;;;;5086679;28;20402;-71
2023/10/12 06:59:52;;;;;;;12.85;2.55;;;11.20;89.60;;;;;;5087219;28;21095;-71
2023/10/12 07:02:24;;;;;;;12.50;2.40;;;11.20;89.50;;;;;;5088368;28;20406;-72
2023/10/12 07:04:55;;;;;;;12.98;2.80;;;11.20;89.70;;;;;;5087440;28;20467;-71
2023/10/12 07:07:29;;;;;;;12.73;2.63;;;11.20;89.90;;;;;;5087860;28;20550;-71
2023/10/12 07:12:41;;;;;;;14.38;2.55;;;11.30;90.20;;;;;;5088349;28;20474;-71
2023/10/12 07:15:11;;;;;;;11.05;2.70;;;11.30;90.20;;;;;;5088440;28;20406;-71
2023/10/12 07:17:37;;;;;;;13.38;2.58;;;11.40;90.30;;;;;;5087441;28;20417;-71
2023/10/12 07:20:07;;;;;;;9.85;2.42;;;11.40;90.30;;;;;;5087981;28;20413;-71
2023/10/12 07:22:37;;;;;;;11.05;2.67;;;11.50;90.40;;;;;;5086664;28;20604;-71
2023/10/12 07:25:04;;;;;;;10.27;2.20;;;11.50;90.40;;;;;;5087844;28;20508;-71
2023/10/12 07:27:48;;;;;;;12.18;2.40;;;11.50;90.40;;;;;;5088019;28;20398;-71
2023/10/12 07:30:21;;;;;;;11.63;2.30;;;11.60;90.20;;;;;;5087543;28;20398;-71
2023/10/12 07:32:56;;;;;;;11.43;2.20;;;11.60;90.30;;;;;;5086854;28;21003;-71
2023/10/12 07:35:38;;;;;;;11.02;2.00;;;11.70;90.40;;;;;;5081390;28;20400;-71
2023/10/12 07:38:13;;;;;;;13.48;2.28;;;11.70;90.40;;;;;;5083847;28;20414;-71
2023/10/12 07:40:49;;;;;;;13.85;2.47;;;11.80;90.90;;;;;;5078938;28;20406;-71
2023/10/12 07:43:18;;;;;;;11.10;2.33;;;11.90;90.80;;;;;;5087293;28;20422;-71
2023/10/12 07:45:50;;;;;;;10.50;1.48;;;12.00;90.70;;;;;;5069671;28;20438;-71
2023/10/12 07:48:39;;;;;;;8.10;1.67;;;12.00;90.70;;;;;;5086551;28;20990;-72
2023/10/12 07:51:18;;;;;;;10.07;1.42;;;12.10;90.50;;;;;;5075198;28;20404;-71
2023/10/12 07:53:45;;;;;;;9.10;1.40;;;12.20;90.20;;;;;;5077069;28;20795;-71
2023/10/12 07:56:16;;;;;;;9.07;1.20;;;12.20;89.70;;;;;;5085772;28;20903;-71
2023/10/12 07:58:58;;;;;;;10.27;2.10;;;12.30;89.00;;;;;;5086596;28;20455;-71
2023/10/12 08:03:51;;;;;;;10.73;1.30;;;12.30;87.60;;;;;;5087579;28;20398;-71
2023/10/12 08:06:27;;;;;;;11.75;1.40;;;12.30;87.00;;;;;;5087105;28;20919;-71
2023/10/12 08:09:02;;;;;;;9.77;1.58;;;12.40;86.80;;;;;;5075009;28;20400;-71
2023/10/12 08:11:28;;;;;;;11.50;1.73;;;12.40;86.50;;;;;;5075808;28;20753;-72
2023/10/12 08:14:39;;;;;;;12.90;1.58;;;12.50;86.10;;;;;;5087118;28;20459;-71
2023/10/12 08:19:41;;;;;;;9.35;1.40;;;12.60;84.50;;;;;;5079958;28;20439;-71
2023/10/12 08:24:53;;;;;;;10.02;1.27;;;12.70;83.20;;;;;;5087223;28;20483;-71
2023/10/12 08:27:19;;;;;;;10.98;2.15;;;12.80;82.70;;;;;;5085789;28;20406;-71
2023/10/12 08:32:27;;;;;;;9.23;1.50;;;13.00;81.80;;;;;;5086193;28;20447;-71
2023/10/12 08:37:26;;;;;;;11.70;1.83;;;13.30;81.80;;;;;;5078695;28;20405;-71
2023/10/12 08:44:58;;;;;;;9.43;1.35;;;13.70;78.60;;;;;;5090933;28;20484;-71
2023/10/12 08:52:28;;;;;;;13.23;1.52;;;13.90;70.80;;;;;;5090896;28;20439;-72
2023/10/12 08:55:08;;;;;;;12.60;2.05;;;14.00;69.30;;;;;;5091001;28;20416;-72
2023/10/12 08:57:52;;;;;;;9.90;1.20;;;14.00;68.40;;;;;;5089872;28;20818;-71
2023/10/12 09:00:25;;;;;;;10.43;1.40;;;14.00;67.60;;;;;;5081928;28;20944;-72
2023/10/12 09:03:00;;;;;;;9.98;1.38;;;14.10;68.30;;;;;;5089314;28;20401;-71
2023/10/12 09:05:30;;;;;;;9.97;1.17;;;14.10;68.90;;;;;;5091097;28;20422;-72
2023/10/12 09:08:39;;;;;;;10.40;1.50;;;14.10;68.50;;;;;;5089385;28;20871;-71
2023/10/12 09:13:35;;;;;;;10.63;1.48;;;14.20;67.60;;;;;;5090815;28;20767;-73
2023/10/12 09:16:09;;;;;;;8.67;1.10;;;14.20;67.60;;;;;;5090368;28;20433;-72
2023/10/12 09:18:56;;;;;;;12.65;1.67;;;14.30;67.60;;;;;;5089163;28;20421;-72
2023/10/12 09:24:05;;;;;;;7.27;1.03;;;14.50;70.60;;;;;;5086389;28;20413;-72
2023/10/12 09:26:34;;;;;;;10.98;1.25;;;14.60;69.30;;;;;;5089930;28;20406;-71
2023/10/12 09:36:53;;;;;;;7.68;1.40;;;15.10;61.30;;;;;;5090224;28;20412;-72
2023/10/12 09:39:27;;;;;;;6.88;0.98;;;15.30;65.00;;;;;;5088928;28;20398;-72
2023/10/12 09:41:59;;;;;;;7.90;1.30;;;15.60;58.80;;;;;;5088799;28;20406;-72
2023/10/12 09:44:26;;;;;;;7.87;1.20;;;15.80;57.70;;;;;;5090218;28;20433;-72
2023/10/12 09:46:57;;;;;;;7.35;1.00;;;15.90;54.40;;;;;;5088757;28;20414;-72
2023/10/12 09:49:30;;;;;;;12.52;1.40;;;16.10;52.90;;;;;;5090452;28;20398;-72
2023/10/12 09:52:04;;;;;;;8.27;1.23;;;16.30;48.40;;;;;;5111770;27;20417;-72
2023/10/12 09:54:52;;;;;;;6.82;1.08;;;16.60;47.50;;;;;;5071557;28;20464;-71
2023/10/12 09:57:23;;;;;;;10.05;1.50;;;17.10;49.00;;;;;;5088923;28;20449;-72
2023/10/12 09:59:53;;;;;;;8.38;1.17;;;17.40;30.00;;;;;;5090304;28;20405;-72
2023/10/12 10:02:29;;;;;;;12.88;1.90;;;17.40;28.90;;;;;;5090107;28;20414;-72
2023/10/12 10:07:53;;;;;;;7.20;1.23;;;17.80;24.80;;;;;;5077351;28;20459;-72
2023/10/12 10:10:35;;;;;;;11.10;1.20;;;17.90;26.30;;;;;;5090142;28;20499;-72
2023/10/12 10:13:10;;;;;;;9.97;1.77;;;18.20;23.20;;;;;;5078334;28;20404;-72
2023/10/12 10:15:55;;;;;;;5.80;1.00;;;18.10;15.10;;;;;;5089418;28;20816;-72
2023/10/12 10:18:28;;;;;;;9.32;1.52;;;18.00;13.40;;;;;;5089344;28;20403;-72
2023/10/12 10:21:01;;;;;;;7.80;1.27;;;18.20;17.00;;;;;;5089434;28;20418;-72
2023/10/12 10:23:29;;;;;;;8.60;1.40;;;18.30;11.80;;;;;;5089348;28;20489;-72
2023/10/12 10:26:14;;;;;;;7.88;1.17;;;18.30;9.50;;;;;;5089456;28;20517;-72
2023/10/12 10:28:53;;;;;;;8.73;1.20;;;18.60;18.20;;;;;;5089286;28;21273;-72
2023/10/12 10:31:24;;;;;;;9.70;1.33;;;19.70;15.80;;;;;;5089354;28;20639;-72
2023/10/12 10:33:51;;;;;;;8.27;1.50;;;20.50;1.00;;;;;;5089426;28;20915;-72
2023/10/12 10:36:25;;;;;;;6.80;1.08;;;20.40;1.00;;;;;;5089795;28;20409;-72
2023/10/12 10:41:22;;;;;;;8.95;1.17;;;20.90;1.00;;;;;;5086627;28;20527;-72
2023/10/12 10:43:51;;;;;;;5.95;0.95;;;20.80;1.00;;;;;;5087871;28;20870;-72
2023/10/12 10:46:18;;;;;;;8.80;1.35;;;20.30;1.00;;;;;;5088808;28;20819;-73
2023/10/12 10:48:49;;;;;;;8.45;1.30;;;20.40;1.00;;;;;;5079718;28;20414;-72
2023/10/12 10:51:24;;;;;;;9.90;1.43;;;20.60;1.00;;;;;;5088857;28;20409;-72
2023/10/12 10:53:52;;;;;;;7.07;0.93;;;20.50;1.00;;;;;;5088823;28;20398;-72
2023/10/12 10:56:32;;;;;;;10.40;1.53;;;20.90;1.00;;;;;;5087364;28;20405;-72
2023/10/12 10:58:59;;;;;;;8.27;1.17;;;21.20;1.00;;;;;;5089015;28;20406;-72
2023/10/12 11:01:26;;;;;;;7.15;1.00;;;21.60;1.00;;;;;;5087362;28;20394;-72
2023/10/12 11:03:52;;;;;;;8.20;1.20;;;22.40;1.00;;;;;;5088358;28;20413;-73
2023/10/12 11:06:22;;;;;;;6.57;1.38;;;23.20;1.00;;;;;;5087739;28;20402;-73
2023/10/12 11:08:53;;;;;;;6.78;0.95;;;23.80;1.00;;;;;;5088674;28;20402;-73
2023/10/12 11:11:37;;;;;;;10.18;1.48;;;24.30;1.00;;;;;;5088078;28;20405;-73
2023/10/12 11:14:04;;;;;;;5.33;1.10;;;24.80;1.00;;;;;;5088274;28;21523;-73
2023/10/12 11:16:30;;;;;;;7.13;1.27;;;25.50;99.90;;;;;;5088728;28;21147;-73
2023/10/12 11:18:57;;;;;;;6.93;1.15;;;25.80;99.90;;;;;;5088098;28;20567;-73
2023/10/12 11:21:25;;;;;;;7.13;0.80;;;26.10;99.90;;;;;;5082512;28;20417;-73
2023/10/12 11:24:01;;;;;;;6.18;0.85;;;26.40;99.90;;;;;;5088213;28;20418;-73
2023/10/12 11:26:27;;;;;;;6.20;1.20;;;26.30;99.90;;;;;;5088001;28;20402;-73
2023/10/12 11:29:06;;;;;;;6.70;1.00;;;26.30;41.70;;;;;;5088209;28;20410;-73
2023/10/12 11:31:33;;;;;;;5.82;1.10;;;26.40;1.00;;;;;;5088000;28;20461;-73
2023/10/12 11:34:00;;;;;;;6.38;0.90;;;26.50;99.90;;;;;;5088123;28;21065;-73
2023/10/12 11:36:26;;;;;;;6.88;1.20;;;26.90;74.20;;;;;;5087864;28;20763;-73
2023/10/12 11:39:04;;;;;;;5.63;1.00;;;27.10;1.00;;;;;;5088350;28;20398;-72
2023/10/12 11:41:30;;;;;;;7.75;1.10;;;27.20;1.00;;;;;;5087558;28;20409;-73
2023/10/12 11:44:00;;;;;;;6.82;0.90;;;27.10;99.90;;;;;;5087603;28;20441;-73
2023/10/12 11:46:26;;;;;;;6.63;1.05;;;27.10;99.90;;;;;;5087752;28;20461;-73
2023/10/12 11:49:07;;;;;;;5.43;0.70;;;27.00;1.00;;;;;;5088538;28;20481;-73
2023/10/12 11:51:40;;;;;;;6.00;1.20;;;26.70;99.90;;;;;;5120862;27;20418;-73
2023/10/12 11:54:06;;;;;;;5.50;0.95;;;26.60;1.00;;;;;;5086453;28;20921;-73
2023/10/12 11:56:33;;;;;;;6.55;0.75;;;26.50;97.90;;;;;;5086235;28;20451;-73
2023/10/12 11:58:58;;;;;;;5.93;1.20;;;26.40;99.90;;;;;;5088004;28;20742;-73
2023/10/12 12:01:29;;;;;;;7.55;0.93;;;26.30;51.50;;;;;;5087993;28;20404;-73
2023/10/12 12:03:55;;;;;;;5.93;1.00;;;26.00;99.90;;;;;;5077540;28;20909;-73
2023/10/12 12:06:21;;;;;;;5.88;1.05;;;25.70;99.90;;;;;;5086051;28;20878;-73
2023/10/12 12:08:51;;;;;;;5.63;0.90;;;25.40;99.90;;;;;;5088244;28;20459;-73
2023/10/12 12:11:20;;;;;;;7.45;0.90;;;25.30;99.90;;;;;;5088009;28;20904;-73
2023/10/12 12:13:51;;;;;;;4.22;0.93;;;25.40;99.90;;;;;;5087591;28;20436;-73
2023/10/12 12:16:20;;;;;;;6.30;1.30;;;25.70;1.00;;;;;;5090564;28;20442;-73
2023/10/12 12:18:51;;;;;;;6.18;0.82;;;25.90;1.00;;;;;;5091853;28;21098;-73
2023/10/12 12:21:29;;;;;;;8.93;1.17;;;25.80;1.00;;;;;;5090153;28;20474;-72
2023/10/12 12:23:55;;;;;;;5.90;0.97;;;25.50;99.90;;;;;;5091542;28;20413;-73
2023/10/12 12:26:23;;;;;;;7.38;1.10;;;24.80;99.90;;;;;;5092276;28;20417;-72
2023/10/12 12:29:02;;;;;;;6.82;1.25;;;24.10;99.90;;;;;;5088760;28;20496;-72
2023/10/12 12:31:32;;;;;;;6.93;0.90;;;23.60;99.90;;;;;;5091480;28;20399;-73
2023/10/12 12:33:58;;;;;;;6.63;1.00;;;23.10;1.00;;;;;;5073940;28;20489;-72
2023/10/12 12:36:24;;;;;;;5.17;0.83;;;22.90;1.00;;;;;;5090309;28;20908;-72
2023/10/12 12:41:51;;;;;;;5.93;1.02;;;22.70;99.90;;;;;;5047043;28;20412;-72
2023/10/12 12:44:16;;;;;;;6.00;1.00;;;22.80;99.90;;;;;;5075324;28;20497;-73
2023/10/12 12:46:42;;;;;;;7.35;1.17;;;22.70;99.90;;;;;;5091022;28;20463;-72
2023/10/12 12:49:11;;;;;;;5.77;1.17;;;22.50;99.90;;;;;;5089966;28;20835;-72
2023/10/12 12:51:38;;;;;;;8.95;1.10;;;22.20;99.90;;;;;;5091909;28;20419;-73
2023/10/12 12:54:04;;;;;;;7.20;0.82;;;21.90;62.00;;;;;;5091110;28;20436;-72
2023/10/12 12:56:30;;;;;;;7.13;1.00;;;21.50;46.30;;;;;;5090718;28;20441;-72
2023/10/12 12:58:55;;;;;;;9.30;1.43;;;21.10;62.50;;;;;;5091581;28;20401;-73
2023/10/12 13:01:26;;;;;;;9.52;1.25;;;20.80;99.90;;;;;;5091421;28;20459;-72
2023/10/12 13:03:52;;;;;;;7.13;0.93;;;20.60;99.90;;;;;;5087526;28;20429;-72
2023/10/12 13:06:19;;;;;;;10.82;1.30;;;20.40;99.90;;;;;;5090635;28;20395;-72
2023/10/12 13:08:45;;;;;;;6.25;1.15;;;20.20;99.90;;;;;;5091496;28;20406;-72
2023/10/12 13:11:11;;;;;;;7.53;1.17;;;20.00;99.90;;;;;;5089861;28;20767;-71
2023/10/12 13:13:39;;;;;;;7.82;1.10;;;19.70;99.90;;;;;;5090547;28;20485;-71
2023/10/12 13:16:05;;;;;;;6.13;1.05;;;19.50;99.90;;;;;;5118267;27;20442;-71
2023/10/12 13:18:34;;;;;;;7.70;1.27;;;19.30;99.90;;;;;;5090950;28;20429;-71
2023/10/12 13:21:01;;;;;;;8.25;1.40;;;19.20;99.90;;;;;;5091101;28;20427;-71
2023/10/12 13:23:27;;;;;;;8.23;1.70;;;19.10;99.90;;;;;;5090485;28;20451;-71
2023/10/12 13:25:53;;;;;;;9.20;1.33;;;19.10;99.90;;;;;;5090630;28;20422;-70
2023/10/12 13:28:18;;;;;;;10.65;1.17;;;19.10;99.90;;;;;;5090269;28;20390;-71
2023/10/12 13:30:45;;;;;;;9.57;1.30;;;19.00;99.90;;;;;;5090307;28;20489;-71
2023/10/12 13:33:13;;;;;;;8.27;1.20;;;19.00;99.90;;;;;;5090378;28;20432;-71
2023/10/12 13:38:09;;;;;;;7.17;1.30;;;18.90;1.00;;;;;;5090317;28;20402;-71
2023/10/12 13:40:46;;;;;;;7.38;1.38;;;18.80;99.90;;;;;;5090254;28;20398;-71
2023/10/12 13:43:14;;;;;;;6.60;1.20;;;18.70;1.00;;;;;;5090253;28;20397;-71
2023/10/12 13:45:47;;;;;;;8.65;1.55;;;18.70;1.00;;;;;;5090257;28;20499;-71
2023/10/12 13:48:24;;;;;;;6.78;1.23;;;18.70;1.00;;;;;;5089631;28;20398;-71
2023/10/12 13:51:04;;;;;;;7.20;1.20;;;18.70;1.00;;;;;;5090300;28;20398;-71
2023/10/12 13:53:36;;;;;;;7.60;1.10;;;18.70;1.00;;;;;;5077873;28;20402;-71
2023/10/12 13:56:09;;;;;;;10.35;1.45;;;18.60;1.00;;;;;;5090306;28;20390;-71
2023/10/12 13:58:35;;;;;;;6.47;1.20;;;18.60;1.00;;;;;;5088836;28;20398;-71
2023/10/12 14:01:13;;;;;;;7.72;1.13;;;18.60;1.00;;;;;;5090130;28;20475;-71
2023/10/12 14:03:50;;;;;;;7.97;1.10;;;18.70;1.00;;;;;;5089957;28;20524;-71
2023/10/12 14:06:16;;;;;;;5.73;1.00;;;18.60;1.00;;;;;;5089737;28;20426;-71
2023/10/12 14:08:42;;;;;;;7.30;1.13;;;18.50;1.00;;;;;;5089534;28;20394;-71
2023/10/12 14:11:13;;;;;;;8.52;1.40;;;18.40;1.00;;;;;;5089816;28;20398;-73
2023/10/12 14:13:39;;;;;;;10.52;1.95;;;18.30;1.00;;;;;;5089781;28;20488;-74
2023/10/12 14:16:08;;;;;;;7.83;1.10;;;18.20;1.00;;;;;;5089521;28;20505;-71
2023/10/12 14:18:33;;;;;;;8.25;1.10;;;18.10;1.00;;;;;;5089638;28;20406;-71
2023/10/12 14:20:59;;;;;;;8.03;1.20;;;18.10;1.00;;;;;;5089285;28;20405;-71
2023/10/12 14:23:26;;;;;;;6.45;0.90;;;18.10;1.00;;;;;;5088298;28;20402;-71
2023/10/12 14:25:54;;;;;;;5.53;1.15;;;18.10;1.00;;;;;;5087819;28;20457;-71
2023/10/12 14:28:20;;;;;;;7.07;1.50;;;18.00;1.00;;;;;;5088964;28;20409;-71
2023/10/12 14:30:50;;;;;;;8.20;1.33;;;18.10;1.00;;;;;;5088944;28;20424;-71
2023/10/12 14:33:19;;;;;;;7.82;1.40;;;18.10;1.00;;;;;;5088831;28;20468;-71
2023/10/12 14:35:46;;;;;;;9.02;0.90;;;18.10;1.00;;;;;;5080083;28;20768;-71
2023/10/12 14:38:16;;;;;;;8.48;1.30;;;18.00;1.00;;;;;;5088477;28;20413;-71
2023/10/12 14:40:44;;;;;;;7.03;0.98;;;18.00;1.00;;;;;;5089232;28;20437;-71
2023/10/12 14:43:12;;;;;;;7.07;1.40;;;17.90;1.00;;;;;;5087140;28;20853;-71
2023/10/12 14:45:55;;;;;;;7.47;1.17;;;17.90;1.00;;;;;;5089205;28;20437;-71
2023/10/12 14:48:26;;;;;;;7.90;1.08;;;17.70;1.00;;;;;;5089163;28;20406;-71
2023/10/12 14:51:47;;;;;;;8.43;1.50;;;17.60;1.00;;;;;;5089158;28;20406;-72
2023/10/12 14:53:56;;;;;;;7.82;1.40;;;17.60;1.00;;;;;;5073602;28;20425;-71
2023/10/12 14:56:29;;;;;;;8.68;1.42;;;17.60;1.00;;;;;;5088797;28;21056;-71
2023/10/12 14:58:56;;;;;;;7.22;1.30;;;17.60;1.00;;;;;;5089382;28;20413;-71
2023/10/12 15:01:27;;;;;;;8.70;1.50;;;17.60;1.00;;;;;;5087801;28;20481;-71
2023/10/12 15:03:54;;;;;;;7.47;0.98;;;17.60;1.00;;;;;;5088923;28;20390;-71
2023/10/12 15:06:20;;;;;;;8.00;1.05;;;17.50;1.00;;;;;;5088435;28;21287;-72
2023/10/12 15:08:47;;;;;;;6.35;1.05;;;17.40;1.00;;;;;;5088913;28;20400;-71
2023/10/12 15:11:13;;;;;;;8.25;0.90;;;17.40;1.00;;;;;;5088661;28;20485;-71
2023/10/12 15:13:40;;;;;;;8.17;1.10;;;17.40;1.00;;;;;;5087980;28;20494;-72
2023/10/12 15:16:10;;;;;;;9.88;1.63;;;17.40;1.00;;;;;;5093955;28;20917;-70
2023/10/12 15:18:37;;;;;;;7.28;1.00;;;17.30;1.00;;;;;;5087306;28;20406;-72
2023/10/12 15:21:04;;;;;;;9.55;1.20;;;17.20;1.00;;;;;;5083310;28;20410;-72
2023/10/12 15:23:30;;;;;;;8.18;1.40;;;17.10;1.00;;;;;;5088210;28;20459;-70
2023/10/12 15:26:00;;;;;;;7.47;1.30;;;17.10;1.00;;;;;;5087562;28;21608;-71